Barbados Meteorological Services
Auto gathered TAF list
Powered by Apparatus software
For Flight BA2154
Contact Number 1-(246)-535-0021/2/3/4/5/6
WEB: http://www.barbadosweather.org

**********************************************

2017/11/20 18:58
TAF TBPB 201700Z 2018/2118 10017KT 9999 SCT020= TAF TVSA 201700Z 2018/2118 09010KT 9999 SCT022


**********************************************
2017/11/20 18:09
TAF TAF TAPA 201706Z 2018/2118 11007KT 9999 FEW023


**********************************************
2017/11/20 18:18
TAF LPPR 201700Z 2018/2118 VRB03KT CAVOK
BECMG 2019/2022 10010KT
BECMG 2112/2114 20010KT


**********************************************
2017/11/20 18:18
TAF LPPD 201700Z 2018/2118 VRB05KT 9999 FEW015 SCT040
TEMPO 2018/2104 8000 SHRA BKN015 FEW020CB
BECMG 2018/2021 23012KT
BECMG 2104/2106 28012KT


**********************************************
2017/11/20 18:06
TAF TAF LPLA 201702Z 2018/2118 25008KT 9999 FEW025 SCT035
TEMPO 2018/2118 8000 -SHRA SCT020 BKN030
BECMG 2109/2111 27012KT PROB40
TEMPO 2112/2118 28015G25KT


**********************************************
2017/11/20 18:20
TAF LPAZ 201700Z 2018/2124 20017KT 9999 SCT015 SCT040
TEMPO 2018/2106 5000 SHRA BKN006 FEW020CB
BECMG 2104/2106 29012KT


**********************************************
2017/11/20 18:27
TAF LEVT 201700Z 2018/2118 VRB03KT CAVOK TX18/2115Z TNM03/2107Z


**********************************************
2017/11/20 18:27
TAF LEMD 201700Z 2018/2124 VRB05KT CAVOK TX17/2115Z TN00/2107Z


**********************************************
2017/11/20 18:27
TAF ELLX 201700Z 2018/2124 22010KT 3500 BR -DZRA BKN003
TEMPO 2018/2109 1200 OVC002 PROB40
TEMPO 2021/2108 0300 FG VV001
BECMG 2109/2111 7000 -DZ BKN005


**********************************************
2017/11/20 18:15
TAF TAF EGPK 201655Z 2018/2118 VRB05KT 9999 SCT015 PROB40
TEMPO 2018/2022 6000 -RADZ BKN009
TEMPO 2022/2110 4000 RADZ BKN004
BECMG 2106/2109 21014KT PROB40
TEMPO 2110/2118 6000 -RADZ BKN008


**********************************************
2017/11/20 18:15
TAF EGLL 201702Z 2018/2124 24012KT 9999 BKN012
BECMG 2019/2022 BKN006
TEMPO 2019/2105 3000 RADZ PROB40
TEMPO 2020/2103 BKN004
BECMG 2103/2106 BKN012
BECMG 2106/2109 SCT030
BECMG 2118/2121 23016G26KT BKN012
TEMPO 2119/2124 7000 RA BKN008


**********************************************
2017/11/20 18:15
TAF EGKK 201659Z 2018/2124 24008KT 9999 BKN012
TEMPO 2018/2103 4000 RADZ BKN006
BECMG 2102/2105 SCT025 PROB30
TEMPO 2109/2118 9000 -RA BKN014
BECMG 2118/2121 BKN014
TEMPO 2118/2124 8000 -RA


**********************************************
2017/11/20 19:36
TAF
AMD EGFF 201927Z 2019/2118 25012KT 8000 -RADZ BKN007
TEMPO 2019/2022 1400 DZ BKN001
BECMG 2022/2102 9999 NSW FEW007
TEMPO 2102/2109 BKN007
TEMPO 2116/2118 22015G25KT 4000 RA BKN014


**********************************************
2017/11/20 18:15
TAF EGCC 201704Z 2018/2124 27010KT 9999 SCT020 BKN030 PROB30
TEMPO 2018/2024 9000 -RA
BECMG 2100/2102 16003KT BKN008
TEMPO 2101/2106 3000 RADZ BR BKN003
BECMG 2107/2110 22010KT SCT016 BKN025
TEMPO 2115/2120 22015G25KT 4000 RA BKN012


**********************************************
2017/11/20 18:28
TAF EDDF 201700Z 2018/2124 21012KT 9999 SCT005 BKN012
TEMPO 2018/2112 3000 RA BKN005 PROB30
TEMPO 2018/2106 21015G25KT BKN020
BECMG 2112/2115 BKN020
BECMG 2118/2121 21005KT


**********************************************
2017/11/20 18:28
TAF EBBR 201710Z 2018/2124 23015KT 6000 -RADZ SCT007 BKN009
TEMPO 2018/2020 23015G27KT
TEMPO 2018/2109 3500 RADZ BKN004
BECMG 2110/2112 SCT008 BKN017


**********************************************